KWE weather

Public forecast

Using degrees Celsius for public forecast. Weather courtesy of forecast.io.

Current aviation weather report (METAR) for Longdongbao Airport

Retrieved 2020/08/14 13:00 UTC (45 minutes ago):

ZUGY 141300Z 17005MPS 9999 FEW040 24/19 Q1010 NOSIG

Aviation forecast (TAF) for Longdongbao Airport

Retrieved 2020/08/14 12:00 UTC (2 hours ago):

TAF ZUGY 140904Z 1412/1512 18004MPS 6000 BKN040 TX30/1507Z TN21/1422Z